Melcher Dallas, Iowa
Current Conditions -  °F | °C
As of 12:15 PM on Thursday 29 Jan 2015 (Local Time) from KOXV Reporting Station
Overcast Overcast  
Wind Chill: -6°   Ceiling: 1600
Heat Index:   Visibility: 10mi
Dew Point: -3°   Wind: 28mph
Humidity: 75%   Direction: 320°NW
Pressure: 30.24"   Gusts: 36mph
Location:  41.2269°N, 93.1611°W
Report Text: KOXV 291815Z AUTO 32024G31KT 10SM OVC016 01/M03 A3024 RMK AO2
Loading
Personal Weather Stations






























Interactive Weather Map New forecast layout! Learn more

10-Day Weather Forecast

Advertisements
Track Severe Weather on mobile